createdAt,value
2023-01-11T00:00:56.377Z,5.00
2023-01-11T00:03:43.900Z,5.00
2023-01-11T00:06:31.487Z,5.00
2023-01-11T00:09:18.957Z,5.00
2023-01-11T00:12:04.359Z,5.00
2023-01-11T00:14:49.983Z,5.10
2023-01-11T00:17:37.837Z,5.10
2023-01-11T00:20:23.745Z,5.10
2023-01-11T00:23:09.383Z,5.10
2023-01-11T00:25:57.403Z,5.20
2023-01-11T00:28:45.042Z,5.10
2023-01-11T00:31:30.371Z,5.10
2023-01-11T00:34:20.393Z,5.10
2023-01-11T00:37:06.989Z,5.10
2023-01-11T00:39:52.715Z,5.20
2023-01-11T00:42:56.745Z,5.10
2023-01-11T00:46:19.841Z,5.10
2023-01-11T00:49:05.347Z,5.00
2023-01-11T00:51:50.856Z,5.00
2023-01-11T00:54:41.267Z,4.90
2023-01-11T00:57:29.408Z,4.90
2023-01-11T01:00:18.037Z,4.90
2023-01-11T01:03:06.479Z,4.90
2023-01-11T01:05:55.170Z,4.90
2023-01-11T01:08:45.367Z,4.90
2023-01-11T01:11:33.335Z,4.90
2023-01-11T01:14:28.906Z,4.80
2023-01-11T01:17:16.938Z,4.70
2023-01-11T01:20:02.327Z,4.70
2023-01-11T01:22:50.557Z,4.70
2023-01-11T01:25:37.859Z,4.70
2023-01-11T01:28:25.625Z,4.70
2023-01-11T01:31:14.577Z,4.70
2023-01-11T01:34:00.240Z,4.70
2023-01-11T01:36:45.832Z,4.60
2023-01-11T01:39:31.421Z,4.50
2023-01-11T01:42:19.614Z,4.40
2023-01-11T01:45:08.067Z,4.40
2023-01-11T01:47:58.472Z,4.50
2023-01-11T01:50:48.884Z,4.60
2023-01-11T01:53:40.290Z,4.60
2023-01-11T01:56:43.974Z,4.70
2023-01-11T01:59:35.171Z,4.80
2023-01-11T02:02:25.977Z,4.90
2023-01-11T02:05:14.894Z,4.90
2023-01-11T02:08:03.084Z,5.00
2023-01-11T02:10:50.661Z,5.10
2023-01-11T02:13:46.073Z,5.10
2023-01-11T02:16:34.924Z,5.20
2023-01-11T02:19:52.881Z,5.30
2023-01-11T02:23:03.453Z,5.30
2023-01-11T02:26:16.910Z,5.40
2023-01-11T02:29:18.497Z,5.40
2023-01-11T02:32:25.284Z,5.40
2023-01-11T02:35:19.768Z,5.50
2023-01-11T02:38:12.953Z,5.50
2023-01-11T02:41:52.571Z,5.50
2023-01-11T02:45:06.271Z,5.60
2023-01-11T02:48:00.916Z,5.60
2023-01-11T02:51:12.957Z,5.70
2023-01-11T02:54:10.559Z,5.60
2023-01-11T02:57:00.481Z,5.60
2023-01-11T02:59:50.008Z,5.60
2023-01-11T03:02:35.772Z,5.50
2023-01-11T03:05:24.642Z,5.50
2023-01-11T03:08:27.305Z,5.50
2023-01-11T03:11:40.098Z,5.50
2023-01-11T03:15:11.533Z,5.70
2023-01-11T03:18:05.383Z,5.80
2023-01-11T03:21:07.484Z,5.90
2023-01-11T03:24:09.222Z,6.00
2023-01-11T03:27:14.170Z,6.10
2023-01-11T03:30:11.251Z,6.10
2023-01-11T03:33:22.241Z,6.20
2023-01-11T03:36:26.612Z,6.20
2023-01-11T03:39:29.963Z,6.20
2023-01-11T03:42:20.317Z,6.30
2023-01-11T03:45:09.613Z,6.30
2023-01-11T03:47:57.197Z,6.30
2023-01-11T03:50:45.522Z,6.20
2023-01-11T03:53:35.675Z,6.30
2023-01-11T03:56:27.838Z,6.30
2023-01-11T03:59:14.040Z,6.40
2023-01-11T04:01:59.906Z,6.40
2023-01-11T04:04:46.523Z,6.50
2023-01-11T04:07:32.348Z,6.50
2023-01-11T04:10:21.003Z,6.50
2023-01-11T04:13:09.104Z,6.50
2023-01-11T04:15:54.551Z,6.60
2023-01-11T04:18:42.669Z,6.60
2023-01-11T04:21:27.994Z,6.60
2023-01-11T04:24:15.828Z,6.60
2023-01-11T04:27:03.644Z,6.70
2023-01-11T04:29:49.014Z,6.70
2023-01-11T04:32:34.492Z,6.70
2023-01-11T04:35:24.709Z,6.70
2023-01-11T04:38:10.427Z,6.70
2023-01-11T04:41:15.958Z,6.70
2023-01-11T04:44:01.485Z,6.80
2023-01-11T04:46:46.774Z,6.70
2023-01-11T04:49:32.626Z,6.70
2023-01-11T04:52:20.103Z,6.70
2023-01-11T04:55:06.238Z,6.60
2023-01-11T04:57:54.610Z,6.70
2023-01-11T05:00:40.979Z,6.70
2023-01-11T05:03:26.698Z,6.70
2023-01-11T05:06:16.470Z,6.70
2023-01-11T05:09:01.824Z,6.70
2023-01-11T05:11:49.928Z,6.70
2023-01-11T05:14:35.235Z,6.70
2023-01-11T05:17:20.766Z,6.80
2023-01-11T05:20:10.472Z,6.70
2023-01-11T05:22:56.245Z,6.70
2023-01-11T05:25:41.996Z,6.80
2023-01-11T05:28:29.891Z,6.80
2023-01-11T05:31:16.156Z,6.80
2023-01-11T05:34:02.586Z,6.80
2023-01-11T05:36:47.913Z,6.80
2023-01-11T05:39:34.063Z,6.80
2023-01-11T05:42:19.812Z,6.70
2023-01-11T05:45:24.217Z,6.80
2023-01-11T05:48:09.612Z,6.80
2023-01-11T05:50:58.029Z,6.80
2023-01-11T05:53:44.815Z,6.80
2023-01-11T05:56:30.623Z,6.80
2023-01-11T05:59:16.073Z,6.80
2023-01-11T06:02:04.200Z,6.80
2023-01-11T06:04:49.924Z,6.90
2023-01-11T06:07:35.463Z,6.90
2023-01-11T06:10:21.070Z,6.90
2023-01-11T06:13:25.577Z,6.80
2023-01-11T06:16:14.964Z,6.70
2023-01-11T06:19:03.134Z,6.60
2023-01-11T06:21:51.163Z,6.60
2023-01-11T06:24:36.569Z,6.50
2023-01-11T06:27:24.194Z,6.50
2023-01-11T06:30:10.249Z,6.50
2023-01-11T06:32:56.003Z,6.60
2023-01-11T06:35:43.259Z,6.60
2023-01-11T06:38:29.056Z,6.60
2023-01-11T06:41:14.844Z,6.60
2023-01-11T06:44:02.298Z,6.60
2023-01-11T06:46:48.957Z,6.50
2023-01-11T06:49:37.055Z,6.50
2023-01-11T06:52:22.638Z,6.50
2023-01-11T06:55:08.991Z,6.40
2023-01-11T06:57:54.731Z,6.40
2023-01-11T07:00:44.622Z,6.40
2023-01-11T07:03:30.688Z,6.30
2023-01-11T07:06:18.502Z,6.30
2023-01-11T07:09:04.781Z,6.30
2023-01-11T07:11:52.505Z,6.30
2023-01-11T07:14:41.327Z,6.40
2023-01-11T07:17:27.424Z,6.50
2023-01-11T07:20:13.241Z,6.60
2023-01-11T07:23:04.446Z,6.60
2023-01-11T07:25:49.951Z,6.70
2023-01-11T07:28:36.106Z,6.70
2023-01-11T07:31:22.086Z,6.70
2023-01-11T07:34:10.417Z,6.70
2023-01-11T07:36:56.074Z,6.70
2023-01-11T07:39:43.847Z,6.60
2023-01-11T07:42:47.772Z,6.60
2023-01-11T07:45:45.400Z,6.70
2023-01-11T07:48:31.269Z,6.70
2023-01-11T07:51:20.561Z,6.70
2023-01-11T07:54:08.178Z,6.80
2023-01-11T07:56:56.638Z,6.80
2023-01-11T07:59:42.145Z,7.00
2023-01-11T08:02:28.090Z,7.10
2023-01-11T08:05:13.896Z,7.20
2023-01-11T08:07:59.725Z,7.20
2023-01-11T08:10:45.635Z,7.30
2023-01-11T08:13:50.270Z,7.30
2023-01-11T08:16:37.944Z,7.40
2023-01-11T08:19:25.500Z,7.40
2023-01-11T08:22:12.196Z,7.40
2023-01-11T08:24:59.903Z,7.50
2023-01-11T08:27:45.801Z,7.50
2023-01-11T08:30:31.554Z,7.60
2023-01-11T08:33:16.853Z,7.60
2023-01-11T08:36:07.919Z,7.60
2023-01-11T08:38:58.046Z,7.70
2023-01-11T08:41:49.150Z,7.80
2023-01-11T08:44:35.414Z,7.80
2023-01-11T08:47:22.771Z,7.90
2023-01-11T08:50:09.720Z,7.80
2023-01-11T08:52:56.021Z,8.00
2023-01-11T08:55:47.344Z,8.10
2023-01-11T08:58:35.075Z,8.00
2023-01-11T09:01:23.142Z,8.10
2023-01-11T09:04:23.191Z,8.20
2023-01-11T09:07:11.461Z,8.30
2023-01-11T09:09:57.364Z,8.30
2023-01-11T09:12:43.721Z,8.30
2023-01-11T09:15:29.834Z,8.30
2023-01-11T09:18:15.515Z,8.20
2023-01-11T09:21:01.150Z,8.30
2023-01-11T09:23:47.208Z,8.30
2023-01-11T09:26:35.989Z,8.20
2023-01-11T09:29:26.975Z,8.40
2023-01-11T09:32:13.197Z,8.40
2023-01-11T09:35:00.753Z,8.40
2023-01-11T09:37:56.096Z,8.40
2023-01-11T09:41:09.205Z,8.30
2023-01-11T09:44:16.509Z,8.30
2023-01-11T09:47:25.416Z,8.40
2023-01-11T09:50:19.813Z,8.40
2023-01-11T09:53:20.017Z,8.40
2023-01-11T09:56:12.015Z,8.20
2023-01-11T09:59:24.294Z,8.10
2023-01-11T10:02:34.606Z,8.10
2023-01-11T10:05:57.451Z,8.00
2023-01-11T10:18:27.904Z,8.10
2023-01-11T10:19:37.451Z,8.10
2023-01-11T10:22:33.529Z,8.10
2023-01-11T10:25:34.440Z,8.10
2023-01-11T10:29:12.552Z,8.30
2023-01-11T10:32:02.228Z,8.30
2023-01-11T10:35:12.427Z,8.40
2023-01-11T10:38:18.975Z,8.60
2023-01-11T10:41:38.665Z,8.50
2023-01-11T10:44:40.730Z,8.20
2023-01-11T10:47:33.751Z,8.30
2023-01-11T10:50:39.471Z,8.30
2023-01-11T10:53:44.080Z,8.50
2023-01-11T10:57:01.969Z,8.50
2023-01-11T11:00:01.288Z,8.40
2023-01-11T11:03:02.478Z,8.40
2023-01-11T11:06:07.452Z,8.30
2023-01-11T11:09:07.938Z,8.30
2023-01-11T11:12:01.840Z,8.30
2023-01-11T11:14:52.655Z,8.30
2023-01-11T11:17:41.253Z,8.40
2023-01-11T11:20:33.068Z,8.20
2023-01-11T11:23:22.026Z,8.20
2023-01-11T11:26:09.232Z,8.10
2023-01-11T11:29:07.383Z,8.10
2023-01-11T11:31:52.926Z,8.10
2023-01-11T11:34:45.877Z,8.00
2023-01-11T11:37:36.913Z,8.00
2023-01-11T11:40:37.942Z,8.00
2023-01-11T11:43:25.901Z,8.00
2023-01-11T11:46:18.940Z,8.10
2023-01-11T11:49:18.143Z,8.10
2023-01-11T11:52:05.755Z,8.20
2023-01-11T11:54:56.782Z,8.30
2023-01-11T11:57:47.394Z,8.30
2023-01-11T12:00:40.019Z,8.20
2023-01-11T12:03:33.119Z,8.20
2023-01-11T12:06:25.952Z,8.20
2023-01-11T12:09:27.627Z,8.10
2023-01-11T12:12:22.934Z,8.30
2023-01-11T12:15:22.223Z,8.30
2023-01-11T12:18:27.369Z,8.30
2023-01-11T12:21:23.118Z,8.40
2023-01-11T12:24:18.399Z,8.40
2023-01-11T12:27:03.794Z,8.50
2023-01-11T12:30:03.240Z,8.50
2023-01-11T12:33:15.061Z,8.60
2023-01-11T12:36:20.655Z,8.60
2023-01-11T12:39:40.810Z,8.50
2023-01-11T12:42:44.628Z,8.50
2023-01-11T12:46:12.014Z,8.50
2023-01-11T12:49:31.516Z,8.50
2023-01-11T12:52:35.945Z,8.40
2023-01-11T12:55:47.931Z,8.40
2023-01-11T12:58:40.112Z,8.40
2023-01-11T13:01:35.151Z,8.40
2023-01-11T13:04:39.479Z,8.40
2023-01-11T13:08:00.976Z,8.50
2023-01-11T13:11:12.889Z,8.50
2023-01-11T13:14:22.514Z,8.40
2023-01-11T13:17:29.356Z,8.40
2023-01-11T13:20:59.321Z,8.40
2023-01-11T13:23:54.870Z,8.40
2023-01-11T13:26:45.635Z,8.40
2023-01-11T13:29:36.833Z,8.40
2023-01-11T13:32:27.011Z,8.50
2023-01-11T13:35:21.937Z,8.50
2023-01-11T13:38:52.279Z,8.50
2023-01-11T13:41:48.463Z,8.60
2023-01-11T13:44:44.678Z,8.60
2023-01-11T13:47:44.731Z,8.50
2023-01-11T13:50:41.962Z,8.60
2023-01-11T13:53:33.190Z,8.60
2023-01-11T13:56:30.260Z,8.60
2023-01-11T13:59:36.630Z,8.50
2023-01-11T14:02:40.665Z,8.50
2023-01-11T14:05:28.967Z,8.60
2023-01-11T14:08:51.493Z,8.60
2023-01-11T14:12:05.358Z,8.60
2023-01-11T14:15:15.061Z,8.60
2023-01-11T14:18:30.492Z,8.50
2023-01-11T14:21:29.908Z,8.50
2023-01-11T14:24:18.284Z,8.50
2023-01-11T14:27:11.512Z,8.50
2023-01-11T14:30:36.910Z,8.50
2023-01-11T14:33:34.295Z,8.50
2023-01-11T14:36:58.552Z,8.60
2023-01-11T14:39:58.865Z,8.50
2023-01-11T14:43:01.283Z,8.50
2023-01-11T14:45:55.457Z,8.50
2023-01-11T14:48:53.055Z,8.60
2023-01-11T14:51:58.246Z,8.50
2023-01-11T14:54:49.772Z,8.60
2023-01-11T14:57:37.176Z,8.60
2023-01-11T15:00:22.763Z,8.50
2023-01-11T15:03:11.221Z,8.50
2023-01-11T15:06:20.537Z,8.50
2023-01-11T15:09:41.769Z,8.60
2023-01-11T15:12:42.311Z,8.50
2023-01-11T15:15:51.651Z,8.60
2023-01-11T15:18:46.435Z,8.60
2023-01-11T15:21:47.781Z,8.50
2023-01-11T15:24:54.332Z,8.60
2023-01-11T15:27:43.642Z,8.50
2023-01-11T15:30:29.065Z,8.50
2023-01-11T15:33:17.794Z,8.60
2023-01-11T15:36:07.819Z,8.60
2023-01-11T15:39:02.603Z,8.60
2023-01-11T15:42:15.612Z,8.60
2023-01-11T15:45:25.589Z,8.60
2023-01-11T15:48:24.876Z,8.60
2023-01-11T15:51:10.078Z,8.60
2023-01-11T15:54:10.583Z,8.70
2023-01-11T15:57:18.575Z,8.70
2023-01-11T16:00:39.341Z,8.70
2023-01-11T16:03:35.888Z,8.60
2023-01-11T16:06:53.056Z,8.80
2023-01-11T16:09:45.248Z,8.70
2023-01-11T16:12:57.877Z,8.80
2023-01-11T16:16:09.054Z,8.80
2023-01-11T16:19:07.842Z,8.80
2023-01-11T16:22:01.814Z,8.80
2023-01-11T16:24:50.054Z,8.80
2023-01-11T16:27:36.178Z,8.80
2023-01-11T16:30:22.732Z,8.90
2023-01-11T16:33:21.084Z,8.90
2023-01-11T16:36:18.932Z,8.90
2023-01-11T16:39:15.842Z,8.90
2023-01-11T16:42:05.870Z,8.90
2023-01-11T16:45:05.838Z,8.90
2023-01-11T16:48:13.746Z,9.00
2023-01-11T16:51:02.100Z,9.00
2023-01-11T16:53:57.966Z,9.00
2023-01-11T16:56:48.767Z,9.00
2023-01-11T16:59:37.657Z,9.00
2023-01-11T17:02:31.858Z,9.00
2023-01-11T17:05:23.420Z,9.00
2023-01-11T17:08:36.553Z,9.00
2023-01-11T17:11:42.459Z,9.10
2023-01-11T17:15:06.701Z,9.10
2023-01-11T17:17:54.774Z,9.10
2023-01-11T17:20:41.350Z,9.10
2023-01-11T17:23:26.958Z,9.00
2023-01-11T17:26:26.246Z,9.00
2023-01-11T17:29:17.182Z,9.10
2023-01-11T17:32:06.360Z,9.00
2023-01-11T17:34:52.682Z,9.00
2023-01-11T17:37:38.061Z,9.00
2023-01-11T17:40:29.904Z,9.00
2023-01-11T17:43:43.379Z,9.10
2023-01-11T17:46:36.586Z,9.10
2023-01-11T17:49:24.402Z,9.10
2023-01-11T17:52:18.586Z,9.10
2023-01-11T17:55:16.104Z,9.10
2023-01-11T17:58:37.924Z,9.10
2023-01-11T18:01:24.028Z,9.10
2023-01-11T18:04:22.862Z,9.00
2023-01-11T18:07:19.961Z,8.90
2023-01-11T18:10:06.933Z,9.00
2023-01-11T18:12:55.872Z,8.90
2023-01-11T18:15:47.617Z,8.90
2023-01-11T18:18:42.303Z,8.90
2023-01-11T18:21:51.711Z,9.00
2023-01-11T18:24:43.402Z,9.00
2023-01-11T18:27:35.553Z,9.10
2023-01-11T18:30:33.440Z,9.20
2023-01-11T18:33:22.681Z,9.20
2023-01-11T18:36:23.013Z,9.20
2023-01-11T18:39:12.336Z,9.20
2023-01-11T18:42:12.388Z,9.20
2023-01-11T18:45:01.681Z,9.20
2023-01-11T18:47:47.406Z,9.10
2023-01-11T18:50:33.023Z,9.10
2023-01-11T18:53:18.568Z,9.00
2023-01-11T18:56:04.695Z,8.90
2023-01-11T18:58:50.679Z,8.80
2023-01-11T19:01:54.495Z,8.70
2023-01-11T19:04:46.267Z,8.50
2023-01-11T19:07:32.300Z,8.40
2023-01-11T19:10:23.421Z,8.30
2023-01-11T19:13:10.302Z,8.30
2023-01-11T19:16:00.377Z,8.40
2023-01-11T19:18:47.389Z,8.50
2023-01-11T19:21:34.787Z,8.40
2023-01-11T19:24:21.002Z,8.40
2023-01-11T19:27:07.385Z,8.30
2023-01-11T19:29:53.962Z,8.30
2023-01-11T19:32:41.769Z,8.30
2023-01-11T19:35:27.484Z,8.20
2023-01-11T19:38:12.984Z,8.30
2023-01-11T19:41:04.151Z,8.20
2023-01-11T19:43:55.217Z,8.30
2023-01-11T19:46:41.130Z,8.30
2023-01-11T19:49:29.784Z,8.20
2023-01-11T19:52:19.317Z,8.20
2023-01-11T19:55:05.734Z,8.20
2023-01-11T19:57:52.489Z,8.00
2023-01-11T20:00:38.152Z,8.00
2023-01-11T20:03:23.818Z,8.00
2023-01-11T20:06:10.863Z,7.90
2023-01-11T20:08:56.773Z,7.80
2023-01-11T20:11:42.670Z,7.80
2023-01-11T20:14:28.452Z,7.90
2023-01-11T20:17:19.205Z,7.80
2023-01-11T20:20:07.950Z,7.60
2023-01-11T20:22:53.663Z,7.70
2023-01-11T20:25:41.281Z,7.70
2023-01-11T20:28:29.739Z,7.60
2023-01-11T20:31:17.973Z,7.60
2023-01-11T20:34:08.663Z,7.50
2023-01-11T20:36:54.457Z,7.50
2023-01-11T20:39:39.964Z,7.50
2023-01-11T20:42:25.711Z,7.40
2023-01-11T20:45:11.671Z,7.50
2023-01-11T20:47:59.984Z,7.40
2023-01-11T20:50:48.965Z,7.40
2023-01-11T20:53:38.991Z,7.40
2023-01-11T20:56:24.297Z,7.40
2023-01-11T21:01:55.723Z,7.30
2023-01-11T21:04:41.839Z,7.40
2023-01-11T21:07:27.580Z,7.40
2023-01-11T21:10:13.116Z,7.40
2023-01-11T21:15:43.679Z,7.30
2023-01-11T21:18:29.252Z,7.30
2023-01-11T21:21:17.703Z,7.20
2023-01-11T21:24:06.473Z,7.20
2023-01-11T21:26:52.627Z,7.20
2023-01-11T21:29:41.877Z,7.00
2023-01-11T21:32:30.123Z,7.10
2023-01-11T21:35:15.645Z,7.10
2023-01-11T21:38:02.341Z,7.00
2023-01-11T21:40:47.644Z,6.90
2023-01-11T21:43:33.603Z,6.80
2023-01-11T21:46:19.733Z,6.80
2023-01-11T21:49:07.947Z,6.80
2023-01-11T21:51:56.850Z,6.80
2023-01-11T21:54:43.427Z,6.80
2023-01-11T21:57:31.762Z,6.80
2023-01-11T22:00:17.856Z,6.90
2023-01-11T22:03:04.044Z,6.90
2023-01-11T22:05:49.755Z,6.90
2023-01-11T22:08:37.088Z,6.80
2023-01-11T22:11:28.061Z,6.80
2023-01-11T22:14:13.905Z,6.70
2023-01-11T22:16:59.087Z,6.80
2023-01-11T22:19:44.314Z,6.70
2023-01-11T22:22:30.187Z,6.80
2023-01-11T22:25:16.132Z,6.70
2023-01-11T22:28:04.018Z,6.80
2023-01-11T22:30:49.686Z,6.80
2023-01-11T22:33:36.706Z,6.70
2023-01-11T22:36:25.455Z,6.70
2023-01-11T22:39:15.377Z,6.70
2023-01-11T22:42:01.117Z,6.60
2023-01-11T22:44:47.408Z,6.60
2023-01-11T22:47:33.841Z,6.60
2023-01-11T22:50:19.445Z,6.50
2023-01-11T22:53:04.950Z,6.50
2023-01-11T22:55:50.568Z,6.50
2023-01-11T22:58:38.789Z,6.40
2023-01-11T23:01:32.936Z,6.30
2023-01-11T23:04:18.441Z,6.20
2023-01-11T23:07:04.699Z,6.10
2023-01-11T23:09:52.672Z,6.00
2023-01-11T23:12:56.400Z,5.90
2023-01-11T23:15:44.282Z,5.80
2023-01-11T23:18:32.118Z,5.70
2023-01-11T23:21:17.610Z,5.60
2023-01-11T23:24:05.858Z,5.50
2023-01-11T23:26:51.607Z,5.40
2023-01-11T23:29:37.142Z,5.40
2023-01-11T23:32:23.120Z,5.40
2023-01-11T23:35:09.046Z,5.30
2023-01-11T23:37:55.082Z,5.20
2023-01-11T23:40:59.336Z,5.30
2023-01-11T23:43:45.189Z,5.30
2023-01-11T23:46:49.274Z,5.20
2023-01-11T23:49:35.017Z,5.20
2023-01-11T23:52:23.982Z,5.10
2023-01-11T23:55:14.656Z,5.10
2023-01-11T23:58:09.668Z,5.20
